sensor_id;sensor_type;location;lat;lon;timestamp;pressure;altitude;pressure_sealevel;temperature;humidity
73941;BME280;62294;48.554;10.202;2022-11-15T00:00:54;96023.94;;;5.18;95.61
73941;BME280;62294;48.554;10.202;2022-11-15T00:03:23;96012.94;;;5.14;95.21
73941;BME280;62294;48.554;10.202;2022-11-15T00:05:50;96018.84;;;5.16;96.03
73941;BME280;62294;48.554;10.202;2022-11-15T00:08:17;96017.84;;;5.17;95.17
73941;BME280;62294;48.554;10.202;2022-11-15T00:10:54;96026.56;;;5.18;95.57
73941;BME280;62294;48.554;10.202;2022-11-15T00:13:21;96018.41;;;5.13;95.83
73941;BME280;62294;48.554;10.202;2022-11-15T00:15:47;96025.75;;;5.17;95.45
73941;BME280;62294;48.554;10.202;2022-11-15T00:18:14;96021.31;;;5.18;95.54
73941;BME280;62294;48.554;10.202;2022-11-15T00:20:41;96017.03;;;5.17;96.18
73941;BME280;62294;48.554;10.202;2022-11-15T00:23:09;96022.66;;;5.14;96.05
73941;BME280;62294;48.554;10.202;2022-11-15T00:25:35;96019.41;;;5.12;96.02
73941;BME280;62294;48.554;10.202;2022-11-15T00:28:02;96017.16;;;5.09;96.51
73941;BME280;62294;48.554;10.202;2022-11-15T00:30:28;96017.94;;;5.09;96.45
73941;BME280;62294;48.554;10.202;2022-11-15T00:32:55;96024.84;;;5.10;95.79
73941;BME280;62294;48.554;10.202;2022-11-15T00:35:22;96020.84;;;5.14;96.83
73941;BME280;62294;48.554;10.202;2022-11-15T00:37:49;96015.56;;;5.14;96.57
73941;BME280;62294;48.554;10.202;2022-11-15T00:40:15;96014.75;;;5.14;95.82
73941;BME280;62294;48.554;10.202;2022-11-15T00:42:42;96010.31;;;5.14;95.24
73941;BME280;62294;48.554;10.202;2022-11-15T00:45:09;96001.41;;;5.15;95.15
73941;BME280;62294;48.554;10.202;2022-11-15T00:47:36;96005.41;;;5.11;95.41
73941;BME280;62294;48.554;10.202;2022-11-15T00:50:02;95999.63;;;5.01;95.62
73941;BME280;62294;48.554;10.202;2022-11-15T00:52:29;95994.91;;;4.96;95.43
73941;BME280;62294;48.554;10.202;2022-11-15T00:54:56;95984.66;;;5.01;95.91
73941;BME280;62294;48.554;10.202;2022-11-15T00:57:23;95985.84;;;4.99;95.43
73941;BME280;62294;48.554;10.202;2022-11-15T00:59:50;95970.69;;;4.86;96.02
73941;BME280;62294;48.554;10.202;2022-11-15T01:02:16;95978.44;;;4.88;96.63
73941;BME280;62294;48.554;10.202;2022-11-15T01:04:43;95970.63;;;4.80;96.88
73941;BME280;62294;48.554;10.202;2022-11-15T01:07:09;95962.72;;;4.80;96.82
73941;BME280;62294;48.554;10.202;2022-11-15T01:09:36;95967.00;;;4.81;96.43
73941;BME280;62294;48.554;10.202;2022-11-15T01:12:03;95961.72;;;4.81;96.53
73941;BME280;62294;48.554;10.202;2022-11-15T01:14:29;95959.78;;;4.89;96.31
73941;BME280;62294;48.554;10.202;2022-11-15T01:16:55;95962.56;;;5.02;95.83
73941;BME280;62294;48.554;10.202;2022-11-15T01:19:22;95956.47;;;4.81;95.66
73941;BME280;62294;48.554;10.202;2022-11-15T01:21:49;95952.66;;;4.69;96.17
73941;BME280;62294;48.554;10.202;2022-11-15T01:24:16;95952.03;;;4.67;96.38
73941;BME280;62294;48.554;10.202;2022-11-15T01:26:43;95948.50;;;4.74;95.90
73941;BME280;62294;48.554;10.202;2022-11-15T01:29:09;95949.06;;;4.70;95.81
73941;BME280;62294;48.554;10.202;2022-11-15T01:31:35;95940.06;;;4.50;96.24
73941;BME280;62294;48.554;10.202;2022-11-15T01:34:02;95939.38;;;4.41;96.97
73941;BME280;62294;48.554;10.202;2022-11-15T01:36:29;95939.56;;;4.40;96.57
73941;BME280;62294;48.554;10.202;2022-11-15T01:38:58;95949.06;;;4.41;96.57
73941;BME280;62294;48.554;10.202;2022-11-15T01:41:28;95952.38;;;4.43;96.49
73941;BME280;62294;48.554;10.202;2022-11-15T01:44:25;95937.22;;;4.45;96.53
73941;BME280;62294;48.554;10.202;2022-11-15T01:46:47;95939.09;;;4.51;96.59
73941;BME280;62294;48.554;10.202;2022-11-15T01:49:17;95944.63;;;4.56;96.43
73941;BME280;62294;48.554;10.202;2022-11-15T01:51:45;95938.97;;;4.59;96.52
73941;BME280;62294;48.554;10.202;2022-11-15T01:54:15;95945.25;;;4.58;96.45
73941;BME280;62294;48.554;10.202;2022-11-15T01:57:09;95944.50;;;4.64;96.40
73941;BME280;62294;48.554;10.202;2022-11-15T01:59:38;95929.59;;;4.71;96.36
73941;BME280;62294;48.554;10.202;2022-11-15T02:02:06;95935.47;;;4.52;95.68
73941;BME280;62294;48.554;10.202;2022-11-15T02:04:36;95930.50;;;4.42;96.42
73941;BME280;62294;48.554;10.202;2022-11-15T02:07:05;95927.78;;;4.36;96.27
73941;BME280;62294;48.554;10.202;2022-11-15T02:09:32;95923.22;;;4.29;96.62
73941;BME280;62294;48.554;10.202;2022-11-15T02:11:59;95919.34;;;4.25;95.98
73941;BME280;62294;48.554;10.202;2022-11-15T02:14:27;95912.38;;;4.18;96.41
73941;BME280;62294;48.554;10.202;2022-11-15T02:17:02;95911.09;;;4.14;97.04
73941;BME280;62294;48.554;10.202;2022-11-15T02:22:19;95911.66;;;4.09;96.84
73941;BME280;62294;48.554;10.202;2022-11-15T02:27:47;95921.06;;;3.75;97.05
73941;BME280;62294;48.554;10.202;2022-11-15T02:30:37;95927.34;;;3.74;97.85
73941;BME280;62294;48.554;10.202;2022-11-15T02:35:59;95919.34;;;3.67;97.07
73941;BME280;62294;48.554;10.202;2022-11-15T02:38:54;95902.56;;;3.53;97.46
73941;BME280;62294;48.554;10.202;2022-11-15T02:41:30;95912.31;;;3.45;97.11
73941;BME280;62294;48.554;10.202;2022-11-15T02:44:09;95897.09;;;3.40;97.34
73941;BME280;62294;48.554;10.202;2022-11-15T02:46:40;95892.09;;;3.31;96.94
73941;BME280;62294;48.554;10.202;2022-11-15T02:49:29;95881.31;;;3.26;97.30
73941;BME280;62294;48.554;10.202;2022-11-15T02:51:58;95900.41;;;3.20;97.15
73941;BME280;62294;48.554;10.202;2022-11-15T02:54:26;95891.25;;;3.16;97.63
73941;BME280;62294;48.554;10.202;2022-11-15T02:56:57;95889.97;;;3.12;97.40
73941;BME280;62294;48.554;10.202;2022-11-15T02:59:31;95893.94;;;3.08;97.17
73941;BME280;62294;48.554;10.202;2022-11-15T03:16:15;95887.47;;;2.73;96.97
73941;BME280;62294;48.554;10.202;2022-11-15T03:19:01;95882.69;;;2.76;96.58
73941;BME280;62294;48.554;10.202;2022-11-15T03:21:32;95884.34;;;2.77;96.65
73941;BME280;62294;48.554;10.202;2022-11-15T03:24:03;95889.34;;;2.64;97.46
73941;BME280;62294;48.554;10.202;2022-11-15T03:26:33;95885.50;;;2.44;98.29
73941;BME280;62294;48.554;10.202;2022-11-15T03:29:25;95880.13;;;2.46;97.85
73941;BME280;62294;48.554;10.202;2022-11-15T03:31:58;95883.19;;;2.49;97.36
73941;BME280;62294;48.554;10.202;2022-11-15T03:37:10;95882.66;;;2.31;97.62
73941;BME280;62294;48.554;10.202;2022-11-15T03:39:39;95886.63;;;2.27;96.82
73941;BME280;62294;48.554;10.202;2022-11-15T03:44:51;95897.75;;;2.29;98.04
73941;BME280;62294;48.554;10.202;2022-11-15T03:47:44;95891.41;;;2.15;97.45
73941;BME280;62294;48.554;10.202;2022-11-15T03:50:17;95894.88;;;2.16;97.32
73941;BME280;62294;48.554;10.202;2022-11-15T03:52:48;95895.00;;;2.14;97.23
73941;BME280;62294;48.554;10.202;2022-11-15T03:55:18;95883.75;;;2.06;96.81
73941;BME280;62294;48.554;10.202;2022-11-15T03:57:50;95884.91;;;2.03;97.53
73941;BME280;62294;48.554;10.202;2022-11-15T04:00:17;95878.88;;;2.03;97.13
73941;BME280;62294;48.554;10.202;2022-11-15T04:02:44;95881.19;;;1.98;97.88
73941;BME280;62294;48.554;10.202;2022-11-15T04:05:10;95872.31;;;1.99;97.82
73941;BME280;62294;48.554;10.202;2022-11-15T04:07:37;95871.34;;;1.92;97.22
73941;BME280;62294;48.554;10.202;2022-11-15T04:10:04;95870.25;;;1.86;97.35
73941;BME280;62294;48.554;10.202;2022-11-15T04:12:36;95864.69;;;1.81;96.90
73941;BME280;62294;48.554;10.202;2022-11-15T04:15:06;95867.50;;;1.80;97.10
73941;BME280;62294;48.554;10.202;2022-11-15T04:17:41;95860.94;;;1.76;97.25
73941;BME280;62294;48.554;10.202;2022-11-15T04:20:24;95861.63;;;1.78;97.51
73941;BME280;62294;48.554;10.202;2022-11-15T04:23:16;95850.47;;;1.76;97.41
73941;BME280;62294;48.554;10.202;2022-11-15T04:26:14;95859.66;;;1.72;96.92
73941;BME280;62294;48.554;10.202;2022-11-15T04:28:42;95862.78;;;1.67;96.75
73941;BME280;62294;48.554;10.202;2022-11-15T04:31:28;95858.38;;;1.68;97.96
73941;BME280;62294;48.554;10.202;2022-11-15T04:33:54;95862.28;;;1.72;97.40
73941;BME280;62294;48.554;10.202;2022-11-15T04:36:21;95850.81;;;1.73;97.22
73941;BME280;62294;48.554;10.202;2022-11-15T04:39:07;95849.16;;;1.72;97.16
73941;BME280;62294;48.554;10.202;2022-11-15T04:41:33;95846.09;;;1.60;97.38
73941;BME280;62294;48.554;10.202;2022-11-15T04:43:59;95843.66;;;1.59;96.88
73941;BME280;62294;48.554;10.202;2022-11-15T04:46:26;95837.59;;;1.58;96.53
73941;BME280;62294;48.554;10.202;2022-11-15T04:48:54;95839.75;;;1.55;97.04
73941;BME280;62294;48.554;10.202;2022-11-15T04:51:24;95840.06;;;1.52;96.34
73941;BME280;62294;48.554;10.202;2022-11-15T04:53:50;95839.25;;;1.51;96.48
73941;BME280;62294;48.554;10.202;2022-11-15T04:56:17;95839.94;;;1.45;96.14
73941;BME280;62294;48.554;10.202;2022-11-15T04:58:44;95835.84;;;1.51;96.36
73941;BME280;62294;48.554;10.202;2022-11-15T05:01:12;95832.88;;;1.54;96.67
73941;BME280;62294;48.554;10.202;2022-11-15T05:03:41;95830.22;;;1.62;96.48
73941;BME280;62294;48.554;10.202;2022-11-15T05:06:26;95824.34;;;1.60;96.80
73941;BME280;62294;48.554;10.202;2022-11-15T05:08:53;95814.81;;;1.67;97.45
73941;BME280;62294;48.554;10.202;2022-11-15T05:11:19;95815.75;;;1.74;96.78
73941;BME280;62294;48.554;10.202;2022-11-15T05:13:47;95821.75;;;1.90;97.02
73941;BME280;62294;48.554;10.202;2022-11-15T05:16:13;95816.94;;;2.02;97.37
73941;BME280;62294;48.554;10.202;2022-11-15T05:18:40;95821.75;;;2.21;97.56
73941;BME280;62294;48.554;10.202;2022-11-15T05:21:12;95821.81;;;2.36;96.17
73941;BME280;62294;48.554;10.202;2022-11-15T05:23:40;95822.19;;;2.33;95.90
73941;BME280;62294;48.554;10.202;2022-11-15T05:26:07;95820.34;;;2.33;96.17
73941;BME280;62294;48.554;10.202;2022-11-15T05:28:36;95822.75;;;2.43;96.60
73941;BME280;62294;48.554;10.202;2022-11-15T05:31:11;95815.47;;;2.53;96.23
73941;BME280;62294;48.554;10.202;2022-11-15T05:33:39;95806.78;;;2.52;95.91
73941;BME280;62294;48.554;10.202;2022-11-15T05:36:18;95803.22;;;2.45;96.48
73941;BME280;62294;48.554;10.202;2022-11-15T05:38:48;95803.16;;;2.53;95.73
73941;BME280;62294;48.554;10.202;2022-11-15T05:41:19;95800.38;;;2.32;95.74
73941;BME280;62294;48.554;10.202;2022-11-15T05:43:47;95808.53;;;2.37;95.77
73941;BME280;62294;48.554;10.202;2022-11-15T05:46:15;95803.94;;;2.39;95.77
73941;BME280;62294;48.554;10.202;2022-11-15T05:48:45;95804.69;;;2.48;96.29
73941;BME280;62294;48.554;10.202;2022-11-15T05:51:15;95806.81;;;2.44;96.24
73941;BME280;62294;48.554;10.202;2022-11-15T05:53:44;95805.50;;;2.26;95.60
73941;BME280;62294;48.554;10.202;2022-11-15T05:56:11;95800.47;;;2.16;96.97
73941;BME280;62294;48.554;10.202;2022-11-15T05:58:39;95802.69;;;2.27;96.95
73941;BME280;62294;48.554;10.202;2022-11-15T06:01:05;95799.56;;;2.32;96.45
73941;BME280;62294;48.554;10.202;2022-11-15T06:03:32;95798.63;;;2.47;96.95
73941;BME280;62294;48.554;10.202;2022-11-15T06:05:58;95786.16;;;2.49;95.97
73941;BME280;62294;48.554;10.202;2022-11-15T06:08:25;95789.78;;;2.48;96.08
73941;BME280;62294;48.554;10.202;2022-11-15T06:10:51;95804.16;;;2.52;96.35
73941;BME280;62294;48.554;10.202;2022-11-15T06:13:18;95801.75;;;2.65;96.03
73941;BME280;62294;48.554;10.202;2022-11-15T06:15:45;95800.16;;;2.64;95.57
73941;BME280;62294;48.554;10.202;2022-11-15T06:18:11;95801.47;;;2.60;95.79
73941;BME280;62294;48.554;10.202;2022-11-15T06:20:37;95790.91;;;2.68;96.24
73941;BME280;62294;48.554;10.202;2022-11-15T06:23:05;95795.16;;;2.69;95.53
73941;BME280;62294;48.554;10.202;2022-11-15T06:25:31;95798.72;;;2.76;96.21
73941;BME280;62294;48.554;10.202;2022-11-15T06:27:58;95798.38;;;2.79;95.77
73941;BME280;62294;48.554;10.202;2022-11-15T06:30:26;95801.28;;;2.84;95.84
73941;BME280;62294;48.554;10.202;2022-11-15T06:32:59;95798.75;;;2.91;95.39
73941;BME280;62294;48.554;10.202;2022-11-15T06:35:27;95797.31;;;2.88;95.29
73941;BME280;62294;48.554;10.202;2022-11-15T06:37:53;95795.56;;;2.81;95.74
73941;BME280;62294;48.554;10.202;2022-11-15T06:40:19;95786.59;;;2.75;95.91
73941;BME280;62294;48.554;10.202;2022-11-15T06:42:46;95794.09;;;2.78;95.33
73941;BME280;62294;48.554;10.202;2022-11-15T06:45:13;95793.53;;;2.68;95.21
73941;BME280;62294;48.554;10.202;2022-11-15T06:47:46;95795.34;;;2.68;95.65
73941;BME280;62294;48.554;10.202;2022-11-15T06:50:13;95800.81;;;2.81;95.60
73941;BME280;62294;48.554;10.202;2022-11-15T06:52:39;95797.19;;;2.82;95.71
73941;BME280;62294;48.554;10.202;2022-11-15T06:55:06;95797.25;;;2.97;96.02
73941;BME280;62294;48.554;10.202;2022-11-15T06:57:33;95798.50;;;3.01;95.55
73941;BME280;62294;48.554;10.202;2022-11-15T07:00:00;95792.00;;;2.97;95.15
73941;BME280;62294;48.554;10.202;2022-11-15T07:02:26;95795.25;;;2.99;95.85
73941;BME280;62294;48.554;10.202;2022-11-15T07:04:53;95791.63;;;3.00;95.41
73941;BME280;62294;48.554;10.202;2022-11-15T07:07:19;95781.84;;;3.08;95.22
73941;BME280;62294;48.554;10.202;2022-11-15T07:09:46;95783.31;;;3.25;95.35
73941;BME280;62294;48.554;10.202;2022-11-15T07:12:12;95788.66;;;3.32;95.02
73941;BME280;62294;48.554;10.202;2022-11-15T07:14:39;95786.13;;;3.38;94.89
73941;BME280;62294;48.554;10.202;2022-11-15T07:17:05;95777.72;;;3.43;95.35
73941;BME280;62294;48.554;10.202;2022-11-15T07:19:32;95773.34;;;3.50;94.85
73941;BME280;62294;48.554;10.202;2022-11-15T07:21:59;95777.06;;;3.70;94.59
73941;BME280;62294;48.554;10.202;2022-11-15T07:24:25;95777.75;;;3.93;94.74
73941;BME280;62294;48.554;10.202;2022-11-15T07:26:52;95781.97;;;4.45;92.90
73941;BME280;62294;48.554;10.202;2022-11-15T07:29:18;95785.19;;;5.17;91.98
73941;BME280;62294;48.554;10.202;2022-11-15T07:31:45;95788.97;;;5.69;90.01
73941;BME280;62294;48.554;10.202;2022-11-15T07:34:11;95783.66;;;5.63;86.79
73941;BME280;62294;48.554;10.202;2022-11-15T07:36:38;95779.81;;;5.93;88.49
73941;BME280;62294;48.554;10.202;2022-11-15T07:39:04;95784.56;;;6.24;87.97
73941;BME280;62294;48.554;10.202;2022-11-15T07:41:30;95767.00;;;6.83;86.14
73941;BME280;62294;48.554;10.202;2022-11-15T07:43:57;95764.53;;;7.21;85.31
73941;BME280;62294;48.554;10.202;2022-11-15T07:46:24;95766.97;;;7.36;83.84
73941;BME280;62294;48.554;10.202;2022-11-15T07:48:50;95768.63;;;7.37;84.26
73941;BME280;62294;48.554;10.202;2022-11-15T07:51:17;95773.31;;;8.05;84.58
73941;BME280;62294;48.554;10.202;2022-11-15T07:53:44;95771.31;;;8.45;81.22
73941;BME280;62294;48.554;10.202;2022-11-15T07:56:11;95767.22;;;8.80;81.41
73941;BME280;62294;48.554;10.202;2022-11-15T07:58:38;95767.78;;;8.57;79.56
73941;BME280;62294;48.554;10.202;2022-11-15T08:01:06;95774.22;;;7.73;79.70
73941;BME280;62294;48.554;10.202;2022-11-15T08:03:34;95768.97;;;8.17;82.44
73941;BME280;62294;48.554;10.202;2022-11-15T08:06:01;95767.06;;;8.37;81.75
73941;BME280;62294;48.554;10.202;2022-11-15T08:08:28;95754.03;;;8.74;80.47
73941;BME280;62294;48.554;10.202;2022-11-15T08:10:54;95761.44;;;8.90;80.12
73941;BME280;62294;48.554;10.202;2022-11-15T08:13:20;95756.94;;;8.90;80.05
73941;BME280;62294;48.554;10.202;2022-11-15T08:15:47;95748.78;;;8.92;77.71
73941;BME280;62294;48.554;10.202;2022-11-15T08:18:21;95745.31;;;9.16;78.84
73941;BME280;62294;48.554;10.202;2022-11-15T08:20:47;95743.91;;;9.56;77.49
73941;BME280;62294;48.554;10.202;2022-11-15T08:23:14;95745.28;;;9.41;76.12
73941;BME280;62294;48.554;10.202;2022-11-15T08:25:40;95742.34;;;8.50;79.08
73941;BME280;62294;48.554;10.202;2022-11-15T08:28:10;95738.78;;;8.63;77.98
73941;BME280;62294;48.554;10.202;2022-11-15T08:30:38;95739.81;;;8.24;79.75
73941;BME280;62294;48.554;10.202;2022-11-15T08:33:11;95726.94;;;8.65;80.31
73941;BME280;62294;48.554;10.202;2022-11-15T08:35:42;95720.16;;;9.25;79.71
73941;BME280;62294;48.554;10.202;2022-11-15T08:38:10;95719.16;;;9.98;78.90
73941;BME280;62294;48.554;10.202;2022-11-15T08:40:36;95708.28;;;10.89;74.19
73941;BME280;62294;48.554;10.202;2022-11-15T08:43:04;95707.38;;;11.07;74.12
73941;BME280;62294;48.554;10.202;2022-11-15T08:45:31;95703.34;;;10.22;73.04
73941;BME280;62294;48.554;10.202;2022-11-15T08:48:03;95706.78;;;10.40;70.64
73941;BME280;62294;48.554;10.202;2022-11-15T08:50:29;95704.56;;;9.53;72.52
73941;BME280;62294;48.554;10.202;2022-11-15T08:52:56;95698.38;;;9.59;72.33
73941;BME280;62294;48.554;10.202;2022-11-15T08:55:23;95703.72;;;10.66;73.31
73941;BME280;62294;48.554;10.202;2022-11-15T08:57:50;95693.03;;;10.96;72.26
73941;BME280;62294;48.554;10.202;2022-11-15T09:00:17;95696.69;;;9.65;71.50
73941;BME280;62294;48.554;10.202;2022-11-15T09:02:43;95712.38;;;9.48;74.99
73941;BME280;62294;48.554;10.202;2022-11-15T09:05:10;95700.72;;;10.63;73.34
73941;BME280;62294;48.554;10.202;2022-11-15T09:07:36;95701.00;;;10.14;73.60
73941;BME280;62294;48.554;10.202;2022-11-15T09:10:03;95699.34;;;10.72;71.81
73941;BME280;62294;48.554;10.202;2022-11-15T09:12:30;95707.94;;;11.90;65.75
73941;BME280;62294;48.554;10.202;2022-11-15T09:14:57;95710.78;;;8.48;76.85
73941;BME280;62294;48.554;10.202;2022-11-15T09:17:24;95712.31;;;7.87;79.78
73941;BME280;62294;48.554;10.202;2022-11-15T09:19:50;95718.09;;;7.71;80.90
73941;BME280;62294;48.554;10.202;2022-11-15T09:22:17;95716.94;;;7.41;81.47
73941;BME280;62294;48.554;10.202;2022-11-15T09:24:44;95707.28;;;6.89;83.64
73941;BME280;62294;48.554;10.202;2022-11-15T09:27:11;95701.47;;;7.95;80.62
73941;BME280;62294;48.554;10.202;2022-11-15T09:29:38;95699.28;;;8.86;77.76
73941;BME280;62294;48.554;10.202;2022-11-15T09:32:05;95695.84;;;10.00;73.78
73941;BME280;62294;48.554;10.202;2022-11-15T09:34:32;95702.03;;;9.94;72.83
73941;BME280;62294;48.554;10.202;2022-11-15T09:36:58;95687.03;;;10.48;73.01
73941;BME280;62294;48.554;10.202;2022-11-15T09:39:24;95683.66;;;11.05;70.85
73941;BME280;62294;48.554;10.202;2022-11-15T09:41:59;95682.84;;;11.39;69.08
73941;BME280;62294;48.554;10.202;2022-11-15T09:47:35;95675.31;;;11.36;66.88
73941;BME280;62294;48.554;10.202;2022-11-15T09:50:10;95685.69;;;10.27;72.06
73941;BME280;62294;48.554;10.202;2022-11-15T09:52:39;95672.78;;;10.31;73.12
73941;BME280;62294;48.554;10.202;2022-11-15T09:55:10;95674.63;;;10.72;71.02
73941;BME280;62294;48.554;10.202;2022-11-15T09:58:01;95674.34;;;10.20;72.92
73941;BME280;62294;48.554;10.202;2022-11-15T10:00:40;95673.31;;;9.37;76.23
73941;BME280;62294;48.554;10.202;2022-11-15T10:03:35;95671.53;;;8.39;80.86
73941;BME280;62294;48.554;10.202;2022-11-15T10:06:04;95675.34;;;8.12;83.91
73941;BME280;62294;48.554;10.202;2022-11-15T10:11:17;95670.00;;;7.87;86.50
73941;BME280;62294;48.554;10.202;2022-11-15T10:14:15;95665.97;;;7.78;85.51
73941;BME280;62294;48.554;10.202;2022-11-15T10:19:34;95659.94;;;7.51;87.60
73941;BME280;62294;48.554;10.202;2022-11-15T10:22:35;95653.34;;;7.80;86.17
73941;BME280;62294;48.554;10.202;2022-11-15T10:28:22;95629.31;;;8.69;82.25
73941;BME280;62294;48.554;10.202;2022-11-15T10:30:53;95623.13;;;8.99;80.49
73941;BME280;62294;48.554;10.202;2022-11-15T10:33:36;95621.28;;;9.18;80.34
73941;BME280;62294;48.554;10.202;2022-11-15T10:41:23;95592.63;;;9.63;79.52
73941;BME280;62294;48.554;10.202;2022-11-15T10:44:08;95589.19;;;10.04;76.63
73941;BME280;62294;48.554;10.202;2022-11-15T10:46:38;95591.03;;;10.03;76.83
73941;BME280;62294;48.554;10.202;2022-11-15T10:51:54;95585.81;;;10.26;76.30
73941;BME280;62294;48.554;10.202;2022-11-15T10:56:56;95575.13;;;10.67;75.29
73941;BME280;62294;48.554;10.202;2022-11-15T10:59:28;95569.44;;;11.10;74.13
73941;BME280;62294;48.554;10.202;2022-11-15T11:04:50;95558.94;;;10.69;74.52
73941;BME280;62294;48.554;10.202;2022-11-15T11:07:29;95560.66;;;10.29;76.32
73941;BME280;62294;48.554;10.202;2022-11-15T11:12:29;95561.00;;;10.02;78.95
73941;BME280;62294;48.554;10.202;2022-11-15T11:15:00;95559.59;;;10.30;79.00
73941;BME280;62294;48.554;10.202;2022-11-15T11:25:39;95568.59;;;9.58;80.28
73941;BME280;62294;48.554;10.202;2022-11-15T11:33:42;95550.41;;;9.73;78.34
73941;BME280;62294;48.554;10.202;2022-11-15T11:39:25;95544.03;;;9.92;75.53
73941;BME280;62294;48.554;10.202;2022-11-15T11:42:53;95545.53;;;9.99;75.80
73941;BME280;62294;48.554;10.202;2022-11-15T11:47:40;95541.00;;;10.30;71.58
73941;BME280;62294;48.554;10.202;2022-11-15T11:50:19;95538.81;;;10.38;72.84
73941;BME280;62294;48.554;10.202;2022-11-15T11:55:39;95535.13;;;10.62;69.24
73941;BME280;62294;48.554;10.202;2022-11-15T11:58:16;95527.38;;;10.61;69.67
73941;BME280;62294;48.554;10.202;2022-11-15T12:00:49;95522.66;;;10.40;69.10
73941;BME280;62294;48.554;10.202;2022-11-15T12:03:34;95521.84;;;10.51;69.73
73941;BME280;62294;48.554;10.202;2022-11-15T12:15:14;95526.47;;;10.90;70.55
73941;BME280;62294;48.554;10.202;2022-11-15T12:17:42;95515.72;;;10.74;69.62
73941;BME280;62294;48.554;10.202;2022-11-15T12:20:21;95510.41;;;10.62;70.06
73941;BME280;62294;48.554;10.202;2022-11-15T12:28:35;95514.91;;;10.50;71.79
73941;BME280;62294;48.554;10.202;2022-11-15T12:31:37;95504.19;;;10.45;72.90
73941;BME280;62294;48.554;10.202;2022-11-15T12:36:48;95501.28;;;10.35;73.68
73941;BME280;62294;48.554;10.202;2022-11-15T12:39:16;95506.16;;;10.38;73.75
73941;BME280;62294;48.554;10.202;2022-11-15T12:59:49;95494.75;;;11.00;72.15
73941;BME280;62294;48.554;10.202;2022-11-15T13:02:21;95486.78;;;11.00;70.71
73941;BME280;62294;48.554;10.202;2022-11-15T13:04:49;95487.22;;;11.09;69.75
73941;BME280;62294;48.554;10.202;2022-11-15T13:10:28;95480.47;;;10.78;69.58
73941;BME280;62294;48.554;10.202;2022-11-15T13:12:58;95476.78;;;10.79;68.75
73941;BME280;62294;48.554;10.202;2022-11-15T13:15:59;95480.47;;;10.78;70.60
73941;BME280;62294;48.554;10.202;2022-11-15T13:20:57;95466.56;;;11.27;69.47
73941;BME280;62294;48.554;10.202;2022-11-15T13:23:28;95464.69;;;11.68;68.61
73941;BME280;62294;48.554;10.202;2022-11-15T13:28:33;95469.56;;;11.87;68.41
73941;BME280;62294;48.554;10.202;2022-11-15T13:31:19;95469.31;;;11.61;67.65
73941;BME280;62294;48.554;10.202;2022-11-15T13:33:48;95473.66;;;11.78;67.63
73941;BME280;62294;48.554;10.202;2022-11-15T13:36:21;95472.53;;;11.74;68.36
73941;BME280;62294;48.554;10.202;2022-11-15T13:39:12;95466.88;;;11.43;69.13
73941;BME280;62294;48.554;10.202;2022-11-15T13:41:47;95464.00;;;11.61;68.60
73941;BME280;62294;48.554;10.202;2022-11-15T13:44:21;95462.22;;;11.50;69.32
73941;BME280;62294;48.554;10.202;2022-11-15T13:46:48;95471.84;;;11.39;68.70
73941;BME280;62294;48.554;10.202;2022-11-15T13:49:14;95461.34;;;11.32;70.24
73941;BME280;62294;48.554;10.202;2022-11-15T13:51:47;95464.66;;;11.11;70.81
73941;BME280;62294;48.554;10.202;2022-11-15T13:54:20;95455.69;;;10.89;71.68
73941;BME280;62294;48.554;10.202;2022-11-15T13:56:54;95447.78;;;11.17;70.90
73941;BME280;62294;48.554;10.202;2022-11-15T13:59:26;95449.38;;;11.18;70.42
73941;BME280;62294;48.554;10.202;2022-11-15T14:01:54;95443.06;;;11.08;70.27
73941;BME280;62294;48.554;10.202;2022-11-15T14:04:23;95437.56;;;10.86;70.60
73941;BME280;62294;48.554;10.202;2022-11-15T14:06:56;95434.25;;;10.79;70.92
73941;BME280;62294;48.554;10.202;2022-11-15T14:09:36;95437.38;;;10.64;71.06
73941;BME280;62294;48.554;10.202;2022-11-15T14:14:48;95431.97;;;10.48;71.58
73941;BME280;62294;48.554;10.202;2022-11-15T14:19:57;95428.16;;;10.55;70.68
73941;BME280;62294;48.554;10.202;2022-11-15T14:22:28;95435.34;;;10.43;71.35
73941;BME280;62294;48.554;10.202;2022-11-15T14:25:13;95435.34;;;10.43;71.76
73941;BME280;62294;48.554;10.202;2022-11-15T14:27:43;95435.47;;;10.37;71.78
73941;BME280;62294;48.554;10.202;2022-11-15T14:30:17;95431.38;;;10.57;71.54
73941;BME280;62294;48.554;10.202;2022-11-15T14:32:48;95421.00;;;10.56;70.71
73941;BME280;62294;48.554;10.202;2022-11-15T14:35:17;95422.06;;;10.32;71.25
73941;BME280;62294;48.554;10.202;2022-11-15T14:37:45;95425.28;;;10.34;71.42
73941;BME280;62294;48.554;10.202;2022-11-15T14:40:14;95417.88;;;10.47;71.46
73941;BME280;62294;48.554;10.202;2022-11-15T14:42:41;95415.72;;;10.33;71.09
73941;BME280;62294;48.554;10.202;2022-11-15T14:45:19;95415.03;;;10.26;71.75
73941;BME280;62294;48.554;10.202;2022-11-15T14:47:46;95409.16;;;10.24;72.23
73941;BME280;62294;48.554;10.202;2022-11-15T14:50:15;95401.88;;;10.31;72.00
73941;BME280;62294;48.554;10.202;2022-11-15T14:52:42;95404.75;;;10.18;72.03
73941;BME280;62294;48.554;10.202;2022-11-15T14:55:21;95388.34;;;10.21;71.85
73941;BME280;62294;48.554;10.202;2022-11-15T14:57:50;95391.91;;;10.03;72.46
73941;BME280;62294;48.554;10.202;2022-11-15T15:00:18;95391.78;;;10.10;72.02
73941;BME280;62294;48.554;10.202;2022-11-15T15:02:46;95387.66;;;10.25;71.58
73941;BME280;62294;48.554;10.202;2022-11-15T15:05:13;95380.84;;;10.06;71.95
73941;BME280;62294;48.554;10.202;2022-11-15T15:07:40;95373.34;;;10.15;71.94
73941;BME280;62294;48.554;10.202;2022-11-15T15:10:07;95374.25;;;10.09;72.27
73941;BME280;62294;48.554;10.202;2022-11-15T15:12:54;95367.34;;;9.84;73.13
73941;BME280;62294;48.554;10.202;2022-11-15T15:15:24;95365.25;;;9.86;73.94
73941;BME280;62294;48.554;10.202;2022-11-15T15:17:52;95365.94;;;9.82;74.62
73941;BME280;62294;48.554;10.202;2022-11-15T15:20:18;95370.44;;;9.70;75.20
73941;BME280;62294;48.554;10.202;2022-11-15T15:22:44;95357.63;;;9.67;76.90